Time;durP1;ratioP1;P1;durP2;ratioP2;P2;SDS_P1;SDS_P2;PMS_P1;PMS_P2;Temp;Humidity;BMP_temperature;BMP_pressure;BME280_temperature;BME280_humidity;BME280_pressure;Samples;Min_cycle;Max_cycle;Signal;HPM_P1;HPM_P2
2022/08/03 00:00:25;;;;;;;8.02;5.20;;;21.20;99.90;;;;;;2105140;28;20065;-72
2022/08/03 00:01:25;;;;;;;6.20;5.40;;;21.20;99.90;;;;;;2096133;28;20036;-71
2022/08/03 00:02:26;;;;;;;5.95;5.30;;;21.10;99.90;;;;;;2088208;28;20119;-71
2022/08/03 00:03:27;;;;;;;5.97;5.32;;;21.10;99.90;;;;;;2096496;28;20548;-73
2022/08/03 00:04:27;;;;;;;7.13;5.18;;;21.10;99.90;;;;;;2105246;28;20228;-71
2022/08/03 00:05:28;;;;;;;6.00;5.28;;;21.10;99.90;;;;;;2105366;28;20032;-72
2022/08/03 00:06:29;;;;;;;5.38;4.88;;;21.00;99.90;;;;;;2105345;28;20031;-72
2022/08/03 00:07:29;;;;;;;5.50;5.00;;;21.00;99.90;;;;;;2105068;28;20680;-72
2022/08/03 00:08:30;;;;;;;6.20;5.53;;;21.00;99.90;;;;;;2105047;28;20106;-72
2022/08/03 00:09:31;;;;;;;5.80;5.30;;;21.00;99.90;;;;;;2105406;28;20017;-72
2022/08/03 00:10:31;;;;;;;5.63;4.93;;;21.00;99.90;;;;;;2096197;28;20040;-71
2022/08/03 00:11:33;;;;;;;6.13;5.47;;;21.00;99.90;;;;;;2096135;28;20039;-71
2022/08/03 00:12:35;;;;;;;6.10;5.40;;;21.00;99.90;;;;;;2096314;28;20111;-72
2022/08/03 00:13:35;;;;;;;6.03;5.43;;;21.00;99.90;;;;;;2096557;28;20061;-72
2022/08/03 00:14:36;;;;;;;5.93;5.32;;;20.90;99.90;;;;;;2105105;28;20665;-71
2022/08/03 00:15:37;;;;;;;5.63;5.10;;;20.90;99.90;;;;;;2096113;28;20043;-72
2022/08/03 00:16:38;;;;;;;6.32;5.38;;;20.90;99.90;;;;;;2087989;28;20013;-72
2022/08/03 00:17:38;;;;;;;6.03;5.43;;;20.90;99.90;;;;;;2095829;28;20490;-71
2022/08/03 00:18:39;;;;;;;5.63;5.13;;;20.90;99.90;;;;;;2105089;28;20116;-70
2022/08/03 00:19:40;;;;;;;5.80;5.30;;;20.80;99.90;;;;;;2105090;28;20043;-70
2022/08/03 00:20:41;;;;;;;6.38;4.72;;;20.90;99.90;;;;;;2105042;28;20129;-70
2022/08/03 00:21:41;;;;;;;5.90;5.30;;;20.80;99.90;;;;;;2105138;28;20027;-70
2022/08/03 00:22:42;;;;;;;6.55;5.20;;;20.80;99.90;;;;;;2105113;28;20085;-70
2022/08/03 00:23:43;;;;;;;5.68;5.18;;;20.80;99.90;;;;;;2105089;28;20060;-70
2022/08/03 00:24:43;;;;;;;6.53;5.30;;;20.80;99.90;;;;;;2105170;28;20028;-70
2022/08/03 00:25:44;;;;;;;5.57;5.07;;;20.80;99.90;;;;;;2095772;28;20079;-69
2022/08/03 00:26:45;;;;;;;5.85;5.28;;;20.70;99.90;;;;;;2096107;28;20150;-68
2022/08/03 00:27:45;;;;;;;5.45;4.95;;;20.70;99.90;;;;;;2095515;28;20032;-70
2022/08/03 00:28:46;;;;;;;5.47;4.97;;;20.70;99.90;;;;;;2096014;28;20035;-70
2022/08/03 00:29:47;;;;;;;5.75;4.90;;;20.70;99.90;;;;;;2096013;28;20074;-70
2022/08/03 00:30:48;;;;;;;6.35;5.10;;;20.70;99.90;;;;;;2095795;28;20037;-70
2022/08/03 00:31:48;;;;;;;6.05;5.10;;;20.70;99.90;;;;;;2105070;28;20038;-70
2022/08/03 00:32:49;;;;;;;5.30;4.72;;;20.70;99.90;;;;;;2095840;28;20037;-71
2022/08/03 00:33:49;;;;;;;5.82;5.07;;;20.60;99.90;;;;;;2087684;28;20810;-71
2022/08/03 00:34:50;;;;;;;6.22;4.93;;;20.60;99.90;;;;;;2095883;28;20398;-71
2022/08/03 00:35:51;;;;;;;9.10;5.55;;;20.60;99.90;;;;;;2095574;28;20024;-71
2022/08/03 00:36:52;;;;;;;6.38;5.13;;;20.60;99.90;;;;;;2104998;28;20781;-71
2022/08/03 00:37:53;;;;;;;5.25;4.75;;;20.60;99.90;;;;;;2104417;28;20027;-71
2022/08/03 00:38:55;;;;;;;5.43;4.93;;;20.60;99.90;;;;;;2104916;28;20019;-71
2022/08/03 00:39:55;;;;;;;5.28;4.85;;;20.60;99.90;;;;;;2087478;28;20108;-72
2022/08/03 00:40:56;;;;;;;5.47;4.97;;;20.50;99.90;;;;;;2087866;28;20368;-71
2022/08/03 00:42:04;;;;;;;5.72;5.13;;;20.50;99.90;;;;;;2105144;28;20047;-71
2022/08/03 00:43:06;;;;;;;5.45;4.95;;;20.50;99.90;;;;;;2095899;28;20024;-72
2022/08/03 00:44:07;;;;;;;5.68;5.18;;;20.50;99.90;;;;;;2096154;28;20032;-73
2022/08/03 00:45:08;;;;;;;5.80;5.28;;;20.50;99.90;;;;;;2104846;28;20032;-72
2022/08/03 00:46:08;;;;;;;5.95;5.32;;;20.50;99.90;;;;;;2104665;28;20111;-71
2022/08/03 00:47:10;;;;;;;5.53;5.03;;;20.40;99.90;;;;;;2104827;28;20107;-71
2022/08/03 00:48:12;;;;;;;6.13;5.13;;;20.40;99.90;;;;;;2104323;28;20493;-71
2022/08/03 00:49:13;;;;;;;6.55;5.18;;;20.40;99.90;;;;;;2104773;28;20489;-71
2022/08/03 00:50:14;;;;;;;5.82;5.32;;;20.40;99.90;;;;;;2104583;28;20032;-72
2022/08/03 00:51:15;;;;;;;5.20;4.80;;;20.40;99.90;;;;;;2104130;28;20557;-71
2022/08/03 00:52:16;;;;;;;5.40;4.90;;;20.40;99.90;;;;;;2104695;28;20084;-71
2022/08/03 00:53:17;;;;;;;5.70;5.20;;;20.30;99.90;;;;;;2095892;28;20787;-70
2022/08/03 00:54:18;;;;;;;5.60;5.10;;;20.40;99.90;;;;;;2096309;28;20037;-70
2022/08/03 00:55:19;;;;;;;6.25;5.30;;;20.30;99.90;;;;;;2105018;28;20036;-70
2022/08/03 00:56:20;;;;;;;6.32;5.30;;;20.40;99.90;;;;;;2104700;28;20476;-70
2022/08/03 00:57:21;;;;;;;5.80;5.30;;;20.30;99.90;;;;;;2104520;28;20024;-70
2022/08/03 00:58:23;;;;;;;5.75;5.25;;;20.30;99.90;;;;;;2104425;28;20026;-70
2022/08/03 00:59:23;;;;;;;5.40;4.95;;;20.30;99.90;;;;;;2095778;28;20032;-71
2022/08/03 01:00:26;;;;;;;7.43;5.10;;;20.30;99.90;;;;;;2095806;28;20443;-70
2022/08/03 01:01:26;;;;;;;5.43;4.93;;;20.30;99.90;;;;;;2095662;28;20819;-71
2022/08/03 01:02:28;;;;;;;5.93;5.30;;;20.30;99.90;;;;;;2095764;28;20036;-70
2022/08/03 01:03:29;;;;;;;6.00;5.40;;;20.30;99.90;;;;;;2104592;28;20028;-70
2022/08/03 01:04:29;;;;;;;6.00;5.50;;;20.30;99.90;;;;;;2104900;28;20104;-70
2022/08/03 01:05:37;;;;;;;6.68;5.50;;;20.30;99.90;;;;;;2104658;28;20042;-70
2022/08/03 01:06:56;;;;;;;5.95;5.35;;;20.30;99.90;;;;;;2095603;28;20071;-70
2022/08/03 01:08:12;;;;;;;5.78;5.20;;;20.20;99.90;;;;;;2098065;28;20028;-71
2022/08/03 01:09:54;;;;;;;6.13;5.53;;;20.20;99.90;;;;;;2104619;28;20392;-70
2022/08/03 01:11:10;;;;;;;6.20;5.22;;;20.20;99.90;;;;;;2062374;28;20129;-70
2022/08/03 01:12:26;;;;;;;6.22;5.60;;;20.20;99.90;;;;;;2062408;28;20038;-69
2022/08/03 01:14:06;;;;;;;5.93;5.40;;;20.20;99.90;;;;;;2092057;28;20126;-70
2022/08/03 01:15:18;;;;;;;6.32;5.35;;;20.20;99.90;;;;;;2062140;28;20038;-70
2022/08/03 01:16:35;;;;;;;5.90;5.40;;;20.10;99.90;;;;;;2103835;28;20040;-70
2022/08/03 01:17:58;;;;;;;7.00;5.30;;;20.10;99.90;;;;;;2104511;28;20071;-70
2022/08/03 01:19:12;;;;;;;6.32;5.35;;;20.10;99.90;;;;;;2104549;28;20027;-70
2022/08/03 01:20:15;;;;;;;5.57;5.07;;;20.00;99.90;;;;;;2104727;28;20035;-70
2022/08/03 01:21:38;;;;;;;5.70;5.20;;;20.00;99.90;;;;;;2095611;28;20036;-70
2022/08/03 01:22:48;;;;;;;6.47;4.95;;;20.10;99.90;;;;;;2099047;28;20012;-70
2022/08/03 01:24:21;;;;;;;6.90;5.40;;;20.00;99.90;;;;;;2104866;28;20031;-71
2022/08/03 01:25:35;;;;;;;5.85;5.30;;;20.00;99.90;;;;;;2063337;28;20448;-71
2022/08/03 01:26:53;;;;;;;5.90;5.40;;;20.00;99.90;;;;;;2095880;28;20060;-71
2022/08/03 01:28:08;;;;;;;5.82;5.30;;;20.00;99.90;;;;;;2097990;28;20035;-70
2022/08/03 01:29:40;;;;;;;6.32;5.40;;;20.00;99.90;;;;;;2104634;28;20024;-70
2022/08/03 01:30:43;;;;;;;6.18;5.30;;;19.90;99.90;;;;;;2104468;28;20071;-70
2022/08/03 01:31:51;;;;;;;6.00;5.40;;;19.90;99.90;;;;;;2104463;28;20039;-70
2022/08/03 01:33:02;;;;;;;5.43;4.93;;;19.90;99.90;;;;;;2104545;28;20034;-70
2022/08/03 01:34:05;;;;;;;5.90;5.40;;;19.90;99.90;;;;;;2104578;28;20040;-71
2022/08/03 01:35:15;;;;;;;5.80;5.30;;;19.90;99.90;;;;;;2104449;28;20047;-70
2022/08/03 01:36:22;;;;;;;6.30;5.70;;;19.90;99.90;;;;;;2104481;28;20035;-70
2022/08/03 01:37:30;;;;;;;5.72;5.22;;;19.90;99.90;;;;;;2104482;28;20024;-70
2022/08/03 01:38:34;;;;;;;7.03;5.70;;;19.90;99.90;;;;;;2095633;28;20032;-71
2022/08/03 01:39:36;;;;;;;5.68;5.18;;;19.90;99.90;;;;;;2095704;28;20025;-71
2022/08/03 01:40:40;;;;;;;5.88;5.38;;;19.90;99.90;;;;;;2104533;28;20626;-71
2022/08/03 01:41:49;;;;;;;6.28;5.68;;;19.90;99.90;;;;;;2104514;28;20151;-71
2022/08/03 01:42:51;;;;;;;6.65;5.82;;;19.90;99.90;;;;;;2104715;28;20107;-69
2022/08/03 01:43:56;;;;;;;6.40;5.70;;;19.80;99.90;;;;;;2104392;28;20067;-70
2022/08/03 01:44:59;;;;;;;6.35;5.68;;;19.80;99.90;;;;;;2104546;28;20028;-71
2022/08/03 01:46:03;;;;;;;6.55;5.90;;;19.80;99.90;;;;;;2104563;28;20385;-71
2022/08/03 01:47:05;;;;;;;6.40;5.80;;;19.80;99.90;;;;;;2104525;28;20804;-70
2022/08/03 01:48:06;;;;;;;6.95;5.93;;;19.80;99.90;;;;;;2104153;28;20027;-71
2022/08/03 01:49:11;;;;;;;7.05;6.13;;;19.80;99.90;;;;;;2104455;28;20024;-70
2022/08/03 01:50:14;;;;;;;7.97;6.70;;;19.80;99.90;;;;;;2104489;28;20101;-71
2022/08/03 01:51:18;;;;;;;7.03;6.32;;;19.80;99.90;;;;;;2104717;28;20028;-71
2022/08/03 01:52:20;;;;;;;7.10;6.40;;;19.90;99.90;;;;;;2104494;28;20035;-71
2022/08/03 01:53:22;;;;;;;7.63;6.80;;;19.80;99.90;;;;;;2104564;28;20484;-71
2022/08/03 01:54:24;;;;;;;7.85;6.82;;;19.80;99.90;;;;;;2095335;28;20037;-71
2022/08/03 01:55:27;;;;;;;9.27;7.20;;;19.80;99.90;;;;;;2095704;28;20510;-71
2022/08/03 01:56:28;;;;;;;8.63;7.60;;;19.80;99.90;;;;;;2104330;28;20032;-71
2022/08/03 01:57:30;;;;;;;7.95;7.15;;;19.80;99.90;;;;;;2104180;28;20024;-70
2022/08/03 01:58:32;;;;;;;8.15;7.28;;;19.80;99.90;;;;;;2104284;28;20138;-70
2022/08/03 01:59:36;;;;;;;8.98;7.28;;;19.80;99.90;;;;;;2104429;28;20036;-70
2022/08/03 02:00:38;;;;;;;9.77;7.53;;;19.80;99.90;;;;;;2095362;28;20049;-69
2022/08/03 02:01:40;;;;;;;8.65;7.72;;;19.80;99.90;;;;;;2095744;28;20033;-69
2022/08/03 02:02:42;;;;;;;8.98;7.80;;;19.80;99.90;;;;;;2105707;28;20020;-71
2022/08/03 02:03:45;;;;;;;9.48;7.40;;;19.80;99.90;;;;;;2105865;28;20063;-71
2022/08/03 02:04:47;;;;;;;10.38;7.60;;;19.80;99.90;;;;;;2106110;28;20120;-70
2022/08/03 02:05:49;;;;;;;8.40;7.60;;;19.80;99.90;;;;;;2105834;28;20105;-71
2022/08/03 02:06:51;;;;;;;8.68;7.30;;;19.80;99.90;;;;;;2106080;28;20047;-70
2022/08/03 02:07:55;;;;;;;7.65;6.85;;;19.80;99.90;;;;;;2105845;28;20109;-69
2022/08/03 02:08:58;;;;;;;7.80;7.07;;;19.80;99.90;;;;;;2106076;28;20111;-70
2022/08/03 02:10:01;;;;;;;8.02;7.22;;;19.80;99.90;;;;;;2088854;28;20037;-70
2022/08/03 02:11:03;;;;;;;8.18;7.38;;;19.70;99.90;;;;;;2089356;28;20662;-69
2022/08/03 02:12:07;;;;;;;7.82;6.95;;;19.80;99.90;;;;;;2097095;28;20086;-69
2022/08/03 02:13:10;;;;;;;9.32;6.72;;;19.70;99.90;;;;;;2106109;28;20020;-71
2022/08/03 02:14:11;;;;;;;7.72;6.88;;;19.70;99.90;;;;;;2105851;28;20148;-72
2022/08/03 02:15:15;;;;;;;7.05;6.40;;;19.70;99.90;;;;;;2106109;28;20406;-70
2022/08/03 02:16:18;;;;;;;7.00;6.35;;;19.70;99.90;;;;;;2106055;28;20065;-71
2022/08/03 02:17:20;;;;;;;6.90;6.30;;;19.60;99.90;;;;;;2106084;28;20035;-70
2022/08/03 02:18:22;;;;;;;7.72;6.75;;;19.60;99.90;;;;;;2105679;28;20547;-70
2022/08/03 02:19:25;;;;;;;7.70;6.70;;;19.60;99.90;;;;;;2105998;28;20169;-72
2022/08/03 02:20:27;;;;;;;7.05;6.43;;;19.60;99.90;;;;;;2105854;28;20031;-70
2022/08/03 02:21:30;;;;;;;7.07;6.38;;;19.50;99.90;;;;;;2105907;28;20032;-69
2022/08/03 02:22:33;;;;;;;6.57;5.97;;;19.60;99.90;;;;;;2105942;28;20107;-70
2022/08/03 02:23:34;;;;;;;7.00;6.20;;;19.50;99.90;;;;;;2105954;28;20367;-69
2022/08/03 02:24:34;;;;;;;8.15;6.85;;;19.50;99.90;;;;;;2105899;28;20027;-70
2022/08/03 02:25:42;;;;;;;7.78;6.70;;;19.50;99.90;;;;;;2106026;28;20522;-70
2022/08/03 02:26:44;;;;;;;6.78;6.18;;;19.50;99.90;;;;;;2105805;28;20027;-72
2022/08/03 02:27:54;;;;;;;7.60;6.60;;;19.40;99.90;;;;;;2105431;28;20024;-70
2022/08/03 02:28:58;;;;;;;7.65;6.88;;;19.40;99.90;;;;;;2105711;28;20045;-70
2022/08/03 02:30:04;;;;;;;7.53;6.47;;;19.40;99.90;;;;;;2105772;28;20032;-71
2022/08/03 02:31:11;;;;;;;7.40;6.63;;;19.40;99.90;;;;;;2096887;28;20029;-70
2022/08/03 02:32:19;;;;;;;8.65;6.70;;;19.40;99.90;;;;;;2098047;28;20113;-71
2022/08/03 02:33:27;;;;;;;7.78;6.90;;;19.30;99.90;;;;;;2106025;28;20447;-71
2022/08/03 02:34:30;;;;;;;7.30;6.60;;;19.30;99.90;;;;;;2105926;28;20153;-70
2022/08/03 02:35:32;;;;;;;7.70;6.55;;;19.30;99.90;;;;;;2105806;28;20103;-70
2022/08/03 02:36:37;;;;;;;8.88;6.65;;;19.30;99.90;;;;;;2096617;28;20037;-72
2022/08/03 02:37:43;;;;;;;7.18;6.47;;;19.30;99.90;;;;;;2096975;28;20453;-71
2022/08/03 02:38:50;;;;;;;9.00;6.93;;;19.30;99.90;;;;;;2105704;28;20020;-71
2022/08/03 02:39:53;;;;;;;8.98;7.03;;;19.30;99.90;;;;;;2105939;28;20024;-72
2022/08/03 02:40:56;;;;;;;9.52;6.90;;;19.30;99.90;;;;;;2105689;28;20024;-71
2022/08/03 02:42:01;;;;;;;7.82;6.68;;;19.30;99.90;;;;;;2106030;28;20103;-71
2022/08/03 02:43:06;;;;;;;7.65;6.88;;;19.30;99.90;;;;;;2105949;28;20412;-71
2022/08/03 02:44:08;;;;;;;8.15;7.43;;;19.30;99.90;;;;;;2097295;28;20020;-69
2022/08/03 02:45:13;;;;;;;8.40;7.60;;;19.20;99.90;;;;;;2097157;28;20127;-71
2022/08/03 02:46:18;;;;;;;7.90;7.10;;;19.20;99.90;;;;;;2105918;28;20047;-72
2022/08/03 02:47:20;;;;;;;9.10;8.02;;;19.20;99.90;;;;;;2097125;28;20107;-70
2022/08/03 02:48:29;;;;;;;8.65;7.75;;;19.20;99.90;;;;;;2096930;28;20045;-70
2022/08/03 02:49:31;;;;;;;8.65;7.75;;;19.20;99.90;;;;;;2106006;28;20034;-71
2022/08/03 02:50:33;;;;;;;8.40;7.60;;;19.20;99.90;;;;;;2106464;28;20063;-69
2022/08/03 02:51:37;;;;;;;9.25;7.47;;;19.20;99.90;;;;;;2106150;28;20028;-71
2022/08/03 02:52:40;;;;;;;8.13;7.32;;;19.20;99.90;;;;;;2106556;28;20034;-70
2022/08/03 02:53:44;;;;;;;7.88;7.07;;;19.20;99.90;;;;;;2097581;28;20103;-68
2022/08/03 02:54:46;;;;;;;8.10;7.30;;;19.10;99.90;;;;;;2097668;28;20020;-74
2022/08/03 02:55:48;;;;;;;8.35;7.25;;;19.10;99.90;;;;;;2106314;28;20111;-72
2022/08/03 02:56:52;;;;;;;9.02;7.60;;;19.10;99.90;;;;;;2106451;28;20115;-70
2022/08/03 02:57:55;;;;;;;9.38;7.00;;;19.10;99.90;;;;;;2106148;28;20024;-70
2022/08/03 02:58:58;;;;;;;8.82;7.60;;;19.10;99.90;;;;;;2106109;28;20050;-73
2022/08/03 03:00:00;;;;;;;7.75;7.05;;;19.10;99.90;;;;;;2106263;28;20130;-71
2022/08/03 03:01:01;;;;;;;8.52;7.63;;;19.00;99.90;;;;;;2106322;28;20028;-70
2022/08/03 03:02:03;;;;;;;9.55;7.20;;;19.00;99.90;;;;;;2106179;28;20403;-72
2022/08/03 03:03:05;;;;;;;8.30;7.50;;;19.00;99.90;;;;;;2096987;28;20116;-72
2022/08/03 03:04:08;;;;;;;8.43;7.53;;;19.00;99.90;;;;;;2097400;28;20055;-67
2022/08/03 03:05:10;;;;;;;8.43;7.60;;;19.00;99.90;;;;;;2106166;28;20040;-69
2022/08/03 03:06:12;;;;;;;8.45;7.57;;;19.00;99.90;;;;;;2106007;28;20126;-68
2022/08/03 03:07:13;;;;;;;9.00;7.55;;;19.00;99.90;;;;;;2105977;28;20039;-70
2022/08/03 03:08:17;;;;;;;8.80;7.75;;;19.00;99.90;;;;;;2105745;28;20176;-68
2022/08/03 03:09:24;;;;;;;8.63;7.55;;;19.00;99.90;;;;;;2106243;28;20103;-70
2022/08/03 03:10:25;;;;;;;8.55;7.68;;;19.00;99.90;;;;;;2106255;28;20032;-69
2022/08/03 03:11:26;;;;;;;9.02;7.80;;;19.00;99.90;;;;;;2106038;28;20032;-69
2022/08/03 03:12:27;;;;;;;8.65;7.78;;;18.90;99.90;;;;;;2105857;28;20043;-72
2022/08/03 03:13:29;;;;;;;11.65;7.70;;;18.90;99.90;;;;;;2096595;28;20075;-68
2022/08/03 03:14:31;;;;;;;9.35;8.00;;;18.90;99.90;;;;;;2096995;28;20063;-68
2022/08/03 03:15:34;;;;;;;9.45;8.18;;;19.00;99.90;;;;;;2106152;28;20020;-69
2022/08/03 03:16:36;;;;;;;9.10;8.07;;;18.90;99.90;;;;;;2106168;28;20490;-70
2022/08/03 03:17:37;;;;;;;10.18;8.40;;;18.90;99.90;;;;;;2105868;28;20023;-68
2022/08/03 03:18:39;;;;;;;9.02;8.10;;;18.90;99.90;;;;;;2105919;28;20100;-68
2022/08/03 03:19:41;;;;;;;9.57;8.40;;;18.90;99.90;;;;;;2106059;28;20032;-69
2022/08/03 03:20:44;;;;;;;8.88;7.97;;;18.90;99.90;;;;;;2097012;28;20028;-69
2022/08/03 03:21:46;;;;;;;8.75;7.82;;;18.90;99.90;;;;;;2089002;28;20044;-69
2022/08/03 03:22:49;;;;;;;10.25;8.40;;;18.90;99.90;;;;;;2088839;28;20024;-69
2022/08/03 03:23:50;;;;;;;10.45;8.57;;;18.90;99.90;;;;;;2088917;28;20040;-69
2022/08/03 03:24:53;;;;;;;9.75;7.93;;;18.90;99.90;;;;;;2097010;28;20024;-69
2022/08/03 03:25:55;;;;;;;13.20;7.95;;;18.90;99.90;;;;;;2106012;28;20482;-71
2022/08/03 03:26:56;;;;;;;8.73;7.75;;;18.90;99.90;;;;;;2106789;28;20024;-70
2022/08/03 03:27:59;;;;;;;9.07;8.18;;;18.90;99.90;;;;;;2106467;28;20771;-71
2022/08/03 03:29:01;;;;;;;9.52;8.35;;;18.90;99.90;;;;;;2107418;28;20055;-71
2022/08/03 03:30:03;;;;;;;9.23;8.20;;;18.90;99.90;;;;;;2107694;28;20039;-69
2022/08/03 03:31:05;;;;;;;9.30;8.35;;;18.90;99.90;;;;;;2107229;28;20087;-70
2022/08/03 03:32:06;;;;;;;9.32;8.43;;;18.90;99.90;;;;;;2107182;28;20031;-68
2022/08/03 03:33:07;;;;;;;9.73;8.73;;;18.90;99.90;;;;;;2106859;28;20024;-68
2022/08/03 03:34:08;;;;;;;8.73;7.93;;;18.80;99.90;;;;;;2107228;28;20073;-69
2022/08/03 03:35:10;;;;;;;9.52;8.52;;;18.80;99.90;;;;;;2108162;28;20026;-69
2022/08/03 03:36:11;;;;;;;9.50;8.05;;;18.90;99.90;;;;;;2099742;28;20039;-69
2022/08/03 03:37:11;;;;;;;10.85;7.95;;;18.80;99.90;;;;;;2099742;28;20507;-70
2022/08/03 03:38:12;;;;;;;10.07;8.27;;;18.80;99.90;;;;;;2108568;28;20024;-69
2022/08/03 03:39:13;;;;;;;10.88;8.40;;;18.80;99.90;;;;;;2108233;28;20413;-70
2022/08/03 03:40:14;;;;;;;9.90;8.48;;;18.80;99.90;;;;;;2108531;28;20032;-69
2022/08/03 03:41:15;;;;;;;10.00;8.95;;;18.80;99.90;;;;;;2109689;28;20028;-69
2022/08/03 03:42:15;;;;;;;10.68;8.50;;;18.80;99.90;;;;;;2110242;28;20073;-68
2022/08/03 03:43:19;;;;;;;10.00;8.93;;;18.80;99.90;;;;;;2110966;28;20048;-69
2022/08/03 03:44:20;;;;;;;9.45;8.52;;;18.80;99.90;;;;;;2111135;28;20039;-69
2022/08/03 03:45:22;;;;;;;10.27;9.18;;;18.80;99.90;;;;;;2112280;28;20028;-69
2022/08/03 03:46:23;;;;;;;9.68;8.68;;;18.80;99.90;;;;;;2110974;28;20028;-69
2022/08/03 03:47:23;;;;;;;10.10;9.10;;;18.80;99.90;;;;;;2110875;28;20024;-72
2022/08/03 03:48:25;;;;;;;9.88;8.77;;;18.80;99.90;;;;;;2110443;28;20038;-70
2022/08/03 03:49:25;;;;;;;9.85;8.85;;;18.80;99.90;;;;;;2110318;28;20030;-68
2022/08/03 03:50:28;;;;;;;9.65;8.70;;;18.80;99.90;;;;;;2109900;28;20024;-70
2022/08/03 03:51:29;;;;;;;9.65;8.65;;;18.80;99.90;;;;;;2108783;28;20808;-68
2022/08/03 03:52:31;;;;;;;9.65;8.63;;;18.80;99.90;;;;;;2107553;28;20162;-68
2022/08/03 03:53:31;;;;;;;11.30;9.05;;;18.80;99.90;;;;;;2106694;28;20031;-69
2022/08/03 03:54:42;;;;;;;9.35;8.50;;;18.80;99.90;;;;;;2107039;28;20375;-68
2022/08/03 03:55:43;;;;;;;11.23;8.75;;;18.80;99.90;;;;;;2107586;28;20031;-68
2022/08/03 03:56:45;;;;;;;9.55;8.65;;;18.80;99.90;;;;;;2108131;28;20119;-71
2022/08/03 03:57:45;;;;;;;9.85;8.80;;;18.80;99.90;;;;;;2098648;28;20129;-70
2022/08/03 03:58:46;;;;;;;9.50;8.50;;;18.80;99.90;;;;;;2090525;28;20021;-70
2022/08/03 03:59:47;;;;;;;10.73;8.70;;;18.80;99.90;;;;;;2098782;28;20107;-68
2022/08/03 04:00:48;;;;;;;9.82;8.82;;;18.80;99.90;;;;;;2107286;28;20024;-69
2022/08/03 04:01:50;;;;;;;10.27;9.18;;;18.80;99.90;;;;;;2106391;28;20482;-70
2022/08/03 04:02:51;;;;;;;9.80;8.88;;;18.80;99.90;;;;;;2106120;28;20050;-70
2022/08/03 04:03:51;;;;;;;11.32;9.13;;;18.80;99.90;;;;;;2106044;28;20048;-69
2022/08/03 04:11:00;;;;;;;11.40;8.85;;;18.90;99.90;;;;;;2047522;29;20051;-69
2022/08/03 04:12:01;;;;;;;11.07;9.43;;;18.90;99.90;;;;;;2065144;28;20049;-70
2022/08/03 04:13:08;;;;;;;10.65;9.32;;;18.90;99.90;;;;;;2104972;28;20024;-69
2022/08/03 04:14:13;;;;;;;10.85;9.18;;;18.90;99.90;;;;;;2105955;28;20749;-68
2022/08/03 04:15:15;;;;;;;10.88;9.25;;;18.90;99.90;;;;;;2105659;28;20131;-67
2022/08/03 04:16:20;;;;;;;11.75;9.05;;;18.90;99.90;;;;;;2105732;28;20028;-70
2022/08/03 04:17:25;;;;;;;10.73;9.25;;;18.90;99.90;;;;;;2105888;28;20036;-67
2022/08/03 04:18:29;;;;;;;11.20;9.30;;;18.90;99.90;;;;;;2105727;28;20057;-69
2022/08/03 04:19:42;;;;;;;10.10;9.10;;;19.00;99.90;;;;;;2105873;28;20027;-71
2022/08/03 04:20:46;;;;;;;10.98;9.10;;;19.00;99.90;;;;;;2105542;28;20034;-68
2022/08/03 04:21:50;;;;;;;11.80;9.20;;;19.00;99.90;;;;;;2105574;28;20795;-71
2022/08/03 04:22:53;;;;;;;10.20;9.07;;;19.10;99.90;;;;;;2105613;28;20103;-71
2022/08/03 04:23:57;;;;;;;10.88;9.25;;;19.30;99.90;;;;;;2105508;28;20020;-70
2022/08/03 04:25:08;;;;;;;9.48;8.48;;;19.60;99.90;;;;;;2105238;28;20028;-70
2022/08/03 04:26:12;;;;;;;9.60;8.68;;;20.00;99.90;;;;;;2105172;28;20379;-69
2022/08/03 04:27:16;;;;;;;9.45;8.32;;;20.20;99.90;;;;;;2105495;28;20066;-70
2022/08/03 04:28:18;;;;;;;9.80;8.75;;;20.60;99.90;;;;;;2105155;28;20107;-70
2022/08/03 04:29:21;;;;;;;9.73;8.65;;;20.80;99.90;;;;;;2105246;28;20043;-71
2022/08/03 04:30:22;;;;;;;11.65;8.95;;;21.00;99.90;;;;;;2105397;28;20020;-70
2022/08/03 04:31:24;;;;;;;11.73;8.32;;;21.10;99.90;;;;;;2105257;28;20060;-71
2022/08/03 04:32:27;;;;;;;9.35;8.10;;;21.20;99.90;;;;;;2105184;28;20554;-70
2022/08/03 04:33:32;;;;;;;10.63;8.63;;;21.30;99.90;;;;;;2105525;28;20484;-70
2022/08/03 04:34:32;;;;;;;9.68;8.60;;;21.60;99.90;;;;;;2105315;28;20081;-70
2022/08/03 04:35:35;;;;;;;10.02;8.20;;;21.80;99.90;;;;;;2105348;28;20161;-70
2022/08/03 04:36:48;;;;;;;9.63;7.72;;;22.10;99.90;;;;;;2105475;28;20150;-70
2022/08/03 04:37:52;;;;;;;9.00;8.10;;;22.30;99.90;;;;;;2104908;28;20111;-71
2022/08/03 04:39:02;;;;;;;9.15;8.00;;;22.70;99.90;;;;;;2105388;28;20042;-71
2022/08/03 04:40:07;;;;;;;8.85;7.95;;;22.90;99.90;;;;;;2105622;28;20031;-71
2022/08/03 04:41:09;;;;;;;9.55;8.07;;;23.20;99.90;;;;;;2105547;28;20474;-70
2022/08/03 04:42:12;;;;;;;14.40;8.02;;;23.40;99.90;;;;;;2096597;28;20546;-71
2022/08/03 04:43:17;;;;;;;10.70;7.85;;;23.60;99.90;;;;;;2097242;28;20032;-72
2022/08/03 04:44:20;;;;;;;9.00;7.50;;;23.80;99.90;;;;;;2105600;28;20485;-71
2022/08/03 04:45:23;;;;;;;11.90;8.07;;;24.00;99.90;;;;;;2097081;28;20032;-71
2022/08/03 04:46:43;;;;;;;10.55;7.85;;;24.20;99.90;;;;;;2097499;28;20407;-71
2022/08/03 04:47:44;;;;;;;11.32;7.70;;;24.30;99.90;;;;;;2106246;28;20367;-73
2022/08/03 04:48:45;;;;;;;9.35;7.65;;;24.50;99.90;;;;;;2096857;28;20497;-73
2022/08/03 04:49:46;;;;;;;10.98;7.80;;;24.60;99.90;;;;;;2097204;28;20037;-72
2022/08/03 04:50:47;;;;;;;8.82;7.35;;;24.70;99.20;;;;;;2106116;28;20628;-71
2022/08/03 04:51:49;;;;;;;8.55;7.15;;;24.80;98.40;;;;;;2106456;28;20112;-72
2022/08/03 04:52:49;;;;;;;8.20;7.18;;;24.90;97.70;;;;;;2097480;28;20036;-74
2022/08/03 04:53:50;;;;;;;9.95;7.15;;;25.00;97.10;;;;;;2097790;28;20477;-71
2022/08/03 04:54:51;;;;;;;8.30;6.88;;;25.10;96.50;;;;;;2107132;28;20073;-73
2022/08/03 04:55:52;;;;;;;9.43;7.13;;;25.20;95.90;;;;;;2098029;28;20089;-74
2022/08/03 04:56:52;;;;;;;12.60;7.18;;;25.30;95.30;;;;;;2097984;28;20021;-73
2022/08/03 04:57:53;;;;;;;7.97;6.93;;;25.40;94.70;;;;;;2097624;28;20078;-74
2022/08/03 04:58:54;;;;;;;8.75;7.15;;;25.50;94.30;;;;;;2097925;28;20028;-74
2022/08/03 04:59:55;;;;;;;8.43;6.55;;;25.60;93.80;;;;;;2107075;28;20047;-73
2022/08/03 05:00:55;;;;;;;8.70;7.05;;;25.70;93.40;;;;;;2106833;28;20031;-74
2022/08/03 05:01:56;;;;;;;8.63;7.10;;;25.80;92.90;;;;;;2097424;28;20390;-72
2022/08/03 05:02:57;;;;;;;9.75;6.60;;;25.90;92.30;;;;;;2097525;28;20209;-74
2022/08/03 05:03:59;;;;;;;9.27;6.78;;;26.00;91.80;;;;;;2106316;28;20470;-74
2022/08/03 05:04:59;;;;;;;8.48;7.05;;;26.00;91.50;;;;;;2106976;28;20203;-73
2022/08/03 05:06:00;;;;;;;7.57;6.25;;;26.10;91.20;;;;;;2097998;28;20048;-73
2022/08/03 05:07:01;;;;;;;8.15;6.90;;;26.20;91.00;;;;;;2089327;28;20562;-75
2022/08/03 05:08:02;;;;;;;7.68;6.82;;;26.20;90.40;;;;;;2088808;28;20556;-75
2022/08/03 05:09:03;;;;;;;8.65;7.10;;;26.30;90.10;;;;;;2097306;28;20037;-75
2022/08/03 05:10:09;;;;;;;9.15;6.63;;;26.40;89.70;;;;;;2106344;28;20016;-75
2022/08/03 05:11:10;;;;;;;9.02;6.72;;;26.50;88.70;;;;;;2106314;28;20031;-73
2022/08/03 05:12:11;;;;;;;11.10;7.20;;;26.50;88.00;;;;;;2106676;28;20047;-74
2022/08/03 05:13:12;;;;;;;8.98;6.95;;;26.60;87.40;;;;;;2106293;28;20052;-73
2022/08/03 05:14:13;;;;;;;9.07;6.90;;;26.50;87.40;;;;;;2105584;28;20044;-72
2022/08/03 05:15:14;;;;;;;8.18;6.30;;;26.50;87.00;;;;;;2096509;28;20095;-72
2022/08/03 05:16:15;;;;;;;17.00;10.07;;;26.60;86.20;;;;;;2097550;28;20036;-68
2022/08/03 05:17:16;;;;;;;12.18;8.10;;;26.60;85.70;;;;;;2106192;28;20051;-73
2022/08/03 05:18:16;;;;;;;10.77;7.65;;;26.70;85.30;;;;;;2105008;28;20110;-72
2022/08/03 05:19:17;;;;;;;7.50;6.78;;;26.70;85.00;;;;;;2105556;28;20031;-69
2022/08/03 05:20:18;;;;;;;8.35;6.97;;;26.70;85.10;;;;;;2105838;28;20549;-74
2022/08/03 05:21:18;;;;;;;9.95;6.68;;;26.80;85.00;;;;;;2106691;28;20016;-73
2022/08/03 05:22:22;;;;;;;7.93;6.30;;;26.80;84.20;;;;;;2097705;28;20129;-74
2022/08/03 05:23:26;;;;;;;8.45;6.20;;;26.90;84.20;;;;;;2090823;28;20487;-75
2022/08/03 05:24:27;;;;;;;9.93;6.70;;;26.90;83.60;;;;;;2098092;28;20187;-75
2022/08/03 05:25:28;;;;;;;11.32;7.03;;;26.90;83.00;;;;;;2090079;28;20029;-72
2022/08/03 05:26:28;;;;;;;9.25;6.43;;;26.90;82.70;;;;;;2089989;28;20049;-73
2022/08/03 05:27:29;;;;;;;8.10;6.88;;;26.80;82.70;;;;;;2096019;28;20040;-70
2022/08/03 05:28:30;;;;;;;9.32;6.97;;;26.70;82.70;;;;;;2105153;28;20036;-71
2022/08/03 05:29:30;;;;;;;8.75;6.10;;;26.60;83.00;;;;;;2105240;28;20080;-72
2022/08/03 05:30:31;;;;;;;7.65;6.25;;;26.60;83.10;;;;;;2105005;28;20551;-73
2022/08/03 05:31:32;;;;;;;9.10;6.68;;;26.70;83.80;;;;;;2104695;28;20389;-73
2022/08/03 05:32:32;;;;;;;7.95;6.15;;;26.70;83.00;;;;;;2104760;28;20032;-72
2022/08/03 05:33:33;;;;;;;8.95;6.10;;;26.80;82.90;;;;;;2104854;28;20032;-72
2022/08/03 05:34:34;;;;;;;6.70;6.03;;;26.90;82.30;;;;;;2104821;28;20743;-72
2022/08/03 05:35:37;;;;;;;8.52;6.03;;;27.00;81.80;;;;;;2104910;28;20032;-72